Аэропорт: Астана. Астана

ICAO: UACC

METAR:
2020-08-13 11:30:00
UACC 131130Z 29006MPS 9999 SCT016 BKN030 18/13 Q1006 R22/0///70 NOSIG RMK QFE724/0965
METAR:
2020-08-13 05:00:00
TAF UACC 130500Z 1306/1406 28007MPS 9999 BKN020 BKN080 TX18/1310Z TN10/1323Z TEMPO 1306/1312 30007G12MPS 5000 -SHRA SCT011 BKN015CB BECMG 1312/1314 32005MPS TEMPO 1321/1403 3100 BR SCT005